createdAt,value
2018-06-25T00:01:27.684Z,16.80
2018-06-25T00:03:55.952Z,16.80
2018-06-25T00:06:24.145Z,16.80
2018-06-25T00:08:52.326Z,16.80
2018-06-25T00:11:20.497Z,16.80
2018-06-25T00:13:48.674Z,16.80
2018-06-25T00:16:16.841Z,16.80
2018-06-25T00:18:45.026Z,16.80
2018-06-25T00:23:41.141Z,16.80
2018-06-25T00:26:09.298Z,16.80
2018-06-25T00:28:37.554Z,16.80
2018-06-25T00:31:05.746Z,16.70
2018-06-25T00:33:33.941Z,16.80
2018-06-25T00:36:02.125Z,16.80
2018-06-25T00:38:30.314Z,16.80
2018-06-25T00:40:58.518Z,16.70
2018-06-25T00:43:26.681Z,16.70
2018-06-25T00:45:54.848Z,16.70
2018-06-25T00:48:23.014Z,16.70
2018-06-25T00:50:51.257Z,16.70
2018-06-25T00:53:19.390Z,16.70
2018-06-25T00:55:47.566Z,16.70
2018-06-25T00:58:15.725Z,16.70
2018-06-25T01:00:43.925Z,16.70
2018-06-25T01:03:12.088Z,16.70
2018-06-25T01:05:40.261Z,16.70
2018-06-25T01:08:08.422Z,16.70
2018-06-25T01:10:36.613Z,16.70
2018-06-25T01:13:04.793Z,16.70
2018-06-25T01:15:32.974Z,16.70
2018-06-25T01:18:01.142Z,16.70
2018-06-25T01:20:29.325Z,16.70
2018-06-25T01:22:57.499Z,16.70
2018-06-25T01:25:25.702Z,16.70
2018-06-25T01:27:53.874Z,16.70
2018-06-25T01:30:22.092Z,16.70
2018-06-25T01:32:50.330Z,16.70
2018-06-25T01:35:18.498Z,16.70
2018-06-25T01:37:46.686Z,16.70
2018-06-25T01:40:14.874Z,16.70
2018-06-25T01:42:43.065Z,16.70
2018-06-25T01:45:11.245Z,16.70
2018-06-25T01:47:39.433Z,16.70
2018-06-25T01:50:07.615Z,16.70
2018-06-25T01:52:35.793Z,16.70
2018-06-25T01:55:03.977Z,16.70
2018-06-25T01:57:32.186Z,16.70
2018-06-25T02:00:00.362Z,16.70
2018-06-25T02:02:28.526Z,16.70
2018-06-25T02:04:56.774Z,16.70
2018-06-25T02:07:24.962Z,16.70
2018-06-25T02:09:53.138Z,16.70
2018-06-25T02:12:21.321Z,16.70
2018-06-25T02:14:49.489Z,16.70
2018-06-25T02:17:17.656Z,16.70
2018-06-25T02:19:45.845Z,16.70
2018-06-25T02:22:14.005Z,16.70
2018-06-25T02:24:42.229Z,16.70
2018-06-25T02:27:10.399Z,16.60
2018-06-25T02:29:38.551Z,16.60
2018-06-25T02:32:06.734Z,16.60
2018-06-25T02:34:34.889Z,16.60
2018-06-25T02:37:03.085Z,16.60
2018-06-25T02:39:31.249Z,16.60
2018-06-25T02:41:59.425Z,16.60
2018-06-25T02:44:27.606Z,16.60
2018-06-25T02:46:55.796Z,16.60
2018-06-25T02:49:23.994Z,16.60
2018-06-25T02:51:52.165Z,16.60
2018-06-25T02:54:20.382Z,16.60
2018-06-25T02:56:48.586Z,16.60
2018-06-25T02:59:16.824Z,16.60
2018-06-25T03:01:44.929Z,16.60
2018-06-25T03:04:13.097Z,16.60
2018-06-25T03:06:41.263Z,16.60
2018-06-25T03:09:10.414Z,16.60
2018-06-25T03:11:38.613Z,16.60
2018-06-25T03:14:06.913Z,16.60
2018-06-25T03:16:35.366Z,16.60
2018-06-25T03:19:03.533Z,16.60
2018-06-25T03:21:31.705Z,16.60
2018-06-25T03:23:59.882Z,16.60
2018-06-25T03:26:28.049Z,16.60
2018-06-25T03:28:56.254Z,16.60
2018-06-25T03:31:24.413Z,16.60
2018-06-25T03:33:52.597Z,16.60
2018-06-25T03:36:20.770Z,16.60
2018-06-25T03:38:48.961Z,16.60
2018-06-25T03:41:17.129Z,16.60
2018-06-25T03:43:45.286Z,16.60
2018-06-25T03:48:41.402Z,16.60
2018-06-25T03:51:09.601Z,16.60
2018-06-25T03:56:05.689Z,16.60
2018-06-25T03:58:33.844Z,16.60
2018-06-25T04:01:02.088Z,16.60
2018-06-25T04:03:30.216Z,16.60
2018-06-25T04:05:58.384Z,16.60
2018-06-25T04:08:26.561Z,16.60
2018-06-25T04:10:54.723Z,16.60
2018-06-25T04:13:22.905Z,16.60
2018-06-25T04:15:51.068Z,16.60
2018-06-25T04:18:19.260Z,16.60
2018-06-25T04:20:47.441Z,16.70
2018-06-25T04:23:15.603Z,16.70
2018-06-25T04:25:43.773Z,16.70
2018-06-25T04:28:11.944Z,16.70
2018-06-25T04:30:40.141Z,16.70
2018-06-25T04:33:08.279Z,16.70
2018-06-25T04:35:36.473Z,16.70
2018-06-25T04:38:04.637Z,16.70
2018-06-25T04:40:32.801Z,16.70
2018-06-25T04:43:01.077Z,16.70
2018-06-25T04:45:29.235Z,16.70
2018-06-25T04:47:57.428Z,16.70
2018-06-25T04:50:25.613Z,16.70
2018-06-25T04:52:53.847Z,16.70
2018-06-25T04:55:22.025Z,16.70
2018-06-25T04:57:50.228Z,16.70
2018-06-25T05:00:18.374Z,16.80
2018-06-25T05:02:46.546Z,16.80
2018-06-25T05:05:14.698Z,16.80
2018-06-25T05:07:42.898Z,16.80
2018-06-25T05:10:11.066Z,16.80
2018-06-25T05:12:39.241Z,16.80
2018-06-25T05:15:07.421Z,16.80
2018-06-25T05:17:35.579Z,16.80
2018-06-25T05:20:03.762Z,16.80
2018-06-25T05:22:31.925Z,16.80
2018-06-25T05:25:00.124Z,16.80
2018-06-25T05:27:28.304Z,16.80
2018-06-25T05:29:56.449Z,16.80
2018-06-25T05:32:24.625Z,16.80
2018-06-25T05:34:52.785Z,16.90
2018-06-25T05:37:20.958Z,16.90
2018-06-25T05:39:49.111Z,16.90
2018-06-25T05:42:21.114Z,16.90
2018-06-25T05:44:50.102Z,16.90
2018-06-25T05:47:18.436Z,16.90
2018-06-25T05:49:46.730Z,16.90
2018-06-25T05:52:14.893Z,16.90
2018-06-25T05:54:43.066Z,16.90
2018-06-25T05:57:11.773Z,16.90
2018-06-25T05:59:40.051Z,16.90
2018-06-25T06:02:08.217Z,16.90
2018-06-25T06:04:36.450Z,16.90
2018-06-25T06:07:04.726Z,17.00
2018-06-25T06:09:32.910Z,17.00
2018-06-25T06:12:01.121Z,17.00
2018-06-25T06:14:29.294Z,17.00
2018-06-25T06:16:57.505Z,17.10
2018-06-25T06:19:25.657Z,17.10
2018-06-25T06:21:53.826Z,17.10
2018-06-25T06:24:22.270Z,17.10
2018-06-25T06:26:50.410Z,17.10
2018-06-25T06:29:18.645Z,17.10
2018-06-25T06:31:46.827Z,17.10
2018-06-25T06:34:14.986Z,17.10
2018-06-25T06:36:43.133Z,17.20
2018-06-25T06:39:14.278Z,17.20
2018-06-25T06:41:43.310Z,17.20
2018-06-25T06:46:39.436Z,17.20
2018-06-25T06:49:07.609Z,17.20
2018-06-25T06:51:35.816Z,17.20
2018-06-25T06:54:04.202Z,17.20
2018-06-25T06:56:32.482Z,17.20
2018-06-25T06:59:00.641Z,17.20
2018-06-25T07:01:28.831Z,17.30
2018-06-25T07:03:57.021Z,17.30
2018-06-25T07:06:25.190Z,17.30
2018-06-25T07:08:53.350Z,17.30
2018-06-25T07:11:21.533Z,17.30
2018-06-25T07:13:49.725Z,17.30
2018-06-25T07:16:17.948Z,17.30
2018-06-25T07:18:46.125Z,17.30
2018-06-25T07:21:14.314Z,17.30
2018-06-25T07:23:42.977Z,17.40
2018-06-25T07:26:11.158Z,17.40
2018-06-25T07:28:39.318Z,17.40
2018-06-25T07:31:07.535Z,17.50
2018-06-25T07:33:35.705Z,17.50
2018-06-25T07:36:03.889Z,17.50
2018-06-25T07:38:32.037Z,17.50
2018-06-25T07:41:08.280Z,17.50
2018-06-25T07:43:36.477Z,17.50
2018-06-25T07:46:04.706Z,17.60
2018-06-25T07:48:33.098Z,17.60
2018-06-25T07:51:01.319Z,17.60
2018-06-25T07:53:29.698Z,17.60
2018-06-25T07:55:57.694Z,17.60
2018-06-25T07:58:26.097Z,17.70
2018-06-25T08:00:54.282Z,17.70
2018-06-25T08:03:22.465Z,17.70
2018-06-25T08:05:50.629Z,17.70
2018-06-25T08:08:18.815Z,17.70
2018-06-25T08:13:15.011Z,17.80
2018-06-25T08:15:43.201Z,17.80
2018-06-25T08:18:11.370Z,17.80
2018-06-25T08:20:39.638Z,17.80
2018-06-25T08:23:07.895Z,17.80
2018-06-25T08:25:36.058Z,17.90
2018-06-25T08:28:04.254Z,17.90
2018-06-25T08:30:32.441Z,17.90
2018-06-25T08:33:00.601Z,17.90
2018-06-25T08:35:28.777Z,18.00
2018-06-25T08:37:56.950Z,18.00
2018-06-25T08:40:25.121Z,18.00
2018-06-25T08:42:53.293Z,18.10
2018-06-25T08:45:21.494Z,18.10
2018-06-25T08:47:49.669Z,18.10
2018-06-25T08:50:17.842Z,18.10
2018-06-25T08:52:46.006Z,18.10
2018-06-25T08:55:14.170Z,18.20
2018-06-25T08:57:42.345Z,18.20
2018-06-25T09:00:10.505Z,18.20
2018-06-25T09:02:38.685Z,18.20
2018-06-25T09:05:06.918Z,18.20
2018-06-25T09:07:35.042Z,18.30
2018-06-25T09:10:03.217Z,18.30
2018-06-25T09:12:31.413Z,18.40
2018-06-25T09:14:59.582Z,18.40
2018-06-25T09:17:27.752Z,18.40
2018-06-25T09:19:55.915Z,18.40
2018-06-25T09:22:24.080Z,18.40
2018-06-25T09:24:52.312Z,18.40
2018-06-25T09:27:20.469Z,18.50
2018-06-25T09:29:48.639Z,18.50
2018-06-25T09:32:16.814Z,18.50
2018-06-25T09:34:48.773Z,18.60
2018-06-25T09:37:17.699Z,18.60
2018-06-25T09:39:45.912Z,18.60
2018-06-25T09:42:14.091Z,18.70
2018-06-25T09:44:42.294Z,18.70
2018-06-25T09:47:10.762Z,18.70
2018-06-25T09:49:38.926Z,18.70
2018-06-25T09:52:07.104Z,18.70
2018-06-25T09:54:35.284Z,18.70
2018-06-25T09:57:03.486Z,18.80
2018-06-25T09:59:31.670Z,18.80
2018-06-25T10:01:59.836Z,18.90
2018-06-25T10:04:28.021Z,18.90
2018-06-25T10:06:56.198Z,19.00
2018-06-25T10:09:24.372Z,19.00
2018-06-25T10:11:52.562Z,19.00
2018-06-25T10:14:20.743Z,19.00
2018-06-25T10:16:48.915Z,19.00
2018-06-25T10:19:17.115Z,19.10
2018-06-25T10:21:45.281Z,19.10
2018-06-25T10:24:13.537Z,19.20
2018-06-25T10:26:41.722Z,19.20
2018-06-25T10:29:09.918Z,19.20
2018-06-25T10:31:38.097Z,19.20
2018-06-25T10:34:06.265Z,19.20
2018-06-25T10:36:34.485Z,19.20
2018-06-25T10:39:02.634Z,19.30
2018-06-25T10:41:30.801Z,19.30
2018-06-25T10:43:58.990Z,19.40
2018-06-25T10:46:27.186Z,19.40
2018-06-25T10:48:55.361Z,19.40
2018-06-25T10:51:23.577Z,19.40
2018-06-25T10:53:51.745Z,19.40
2018-06-25T10:56:19.908Z,19.30
2018-06-25T10:58:48.065Z,19.30
2018-06-25T11:01:16.337Z,19.40
2018-06-25T11:03:44.521Z,19.40
2018-06-25T11:06:12.727Z,19.50
2018-06-25T11:08:41.050Z,19.50
2018-06-25T11:11:09.554Z,19.60
2018-06-25T11:13:37.825Z,19.60
2018-06-25T11:16:06.350Z,19.70
2018-06-25T11:18:34.522Z,19.70
2018-06-25T11:23:31.437Z,19.80
2018-06-25T11:25:59.622Z,19.90
2018-06-25T11:28:27.797Z,19.90
2018-06-25T11:30:55.969Z,19.90
2018-06-25T11:33:24.133Z,19.90
2018-06-25T11:35:52.305Z,19.90
2018-06-25T11:38:20.474Z,20.00
2018-06-25T11:40:48.658Z,20.00
2018-06-25T11:43:16.850Z,20.00
2018-06-25T11:45:45.054Z,20.00
2018-06-25T11:48:13.394Z,20.10
2018-06-25T11:50:41.553Z,20.20
2018-06-25T11:53:09.750Z,20.20
2018-06-25T11:55:37.917Z,20.20
2018-06-25T11:58:06.110Z,20.20
2018-06-25T12:00:34.335Z,20.20
2018-06-25T12:03:02.647Z,20.20
2018-06-25T12:05:30.710Z,20.20
2018-06-25T12:07:58.910Z,20.30
2018-06-25T12:10:27.114Z,20.30
2018-06-25T12:12:55.246Z,20.40
2018-06-25T12:15:23.429Z,20.50
2018-06-25T12:17:51.577Z,20.60
2018-06-25T12:20:19.775Z,20.60
2018-06-25T12:22:47.935Z,20.70
2018-06-25T12:25:16.114Z,20.70
2018-06-25T12:27:44.359Z,20.70
2018-06-25T12:30:12.460Z,20.80
2018-06-25T12:32:40.634Z,20.80
2018-06-25T12:35:08.832Z,20.90
2018-06-25T12:37:37.035Z,20.90
2018-06-25T12:40:05.221Z,21.00
2018-06-25T12:42:33.377Z,21.00
2018-06-25T12:45:01.580Z,21.00
2018-06-25T12:47:29.728Z,21.10
2018-06-25T12:49:57.927Z,21.10
2018-06-25T12:52:26.109Z,21.10
2018-06-25T12:54:54.285Z,21.10
2018-06-25T12:57:22.510Z,21.10
2018-06-25T12:59:50.678Z,21.10
2018-06-25T13:02:18.857Z,21.20
2018-06-25T13:04:47.046Z,21.20
2018-06-25T13:07:15.374Z,21.20
2018-06-25T13:09:43.534Z,21.20
2018-06-25T13:12:11.718Z,21.20
2018-06-25T13:14:39.888Z,21.20
2018-06-25T13:17:08.065Z,21.20
2018-06-25T13:19:36.233Z,21.20
2018-06-25T13:22:04.517Z,21.30
2018-06-25T13:24:32.742Z,21.30
2018-06-25T13:27:00.977Z,21.30
2018-06-25T13:29:29.128Z,21.30
2018-06-25T13:31:57.322Z,21.40
2018-06-25T13:34:25.489Z,21.40
2018-06-25T13:36:53.673Z,21.40
2018-06-25T13:39:21.889Z,21.40
2018-06-25T13:41:50.076Z,21.50
2018-06-25T13:44:18.283Z,21.50
2018-06-25T13:46:46.418Z,21.50
2018-06-25T13:49:15.787Z,21.50
2018-06-25T13:51:43.982Z,21.50
2018-06-25T13:54:12.162Z,21.50
2018-06-25T13:56:40.374Z,21.50
2018-06-25T13:59:08.598Z,21.60
2018-06-25T14:01:36.921Z,21.60
2018-06-25T14:04:05.433Z,21.60
2018-06-25T14:06:33.586Z,21.60
2018-06-25T14:09:02.442Z,21.70
2018-06-25T14:11:30.625Z,21.80
2018-06-25T14:13:58.803Z,21.80
2018-06-25T14:16:27.031Z,21.80
2018-06-25T14:18:56.172Z,21.80
2018-06-25T14:21:24.333Z,21.80
2018-06-25T14:23:58.238Z,21.80
2018-06-25T14:26:30.633Z,21.80
2018-06-25T14:28:58.881Z,21.80
2018-06-25T14:31:28.609Z,21.80
2018-06-25T14:34:02.776Z,21.90
2018-06-25T14:36:30.969Z,21.90
2018-06-25T14:38:59.147Z,21.90
2018-06-25T14:41:27.338Z,21.90
2018-06-25T14:43:55.505Z,21.90
2018-06-25T14:46:23.682Z,21.80
2018-06-25T14:48:51.888Z,21.80
2018-06-25T14:51:20.121Z,21.80
2018-06-25T14:53:48.309Z,21.80
2018-06-25T14:56:16.502Z,21.80
2018-06-25T14:58:44.714Z,21.80
2018-06-25T15:01:12.937Z,21.80
2018-06-25T15:03:41.093Z,21.80
2018-06-25T15:06:09.290Z,21.90
2018-06-25T15:08:37.455Z,21.90
2018-06-25T15:11:05.900Z,21.90
2018-06-25T15:13:34.090Z,21.90
2018-06-25T15:16:02.278Z,21.90
2018-06-25T15:18:30.448Z,21.90
2018-06-25T15:20:58.650Z,21.90
2018-06-25T15:23:26.801Z,21.90
2018-06-25T15:25:55.043Z,22.00
2018-06-25T15:28:23.178Z,22.00
2018-06-25T15:30:51.353Z,22.00
2018-06-25T15:33:19.533Z,22.00
2018-06-25T15:35:47.715Z,22.00
2018-06-25T15:40:43.943Z,22.10
2018-06-25T15:43:12.098Z,22.10
2018-06-25T15:45:40.282Z,22.10
2018-06-25T15:48:08.496Z,22.20
2018-06-25T15:50:36.630Z,22.20
2018-06-25T15:53:04.810Z,22.20
2018-06-25T15:55:32.998Z,22.20
2018-06-25T15:58:01.242Z,22.30
2018-06-25T16:00:29.414Z,22.30
2018-06-25T16:02:57.577Z,22.30
2018-06-25T16:05:25.750Z,22.30
2018-06-25T16:07:53.926Z,22.30
2018-06-25T16:10:22.145Z,22.30
2018-06-25T16:12:50.342Z,22.30
2018-06-25T16:15:18.514Z,22.30
2018-06-25T16:17:46.690Z,22.30
2018-06-25T16:20:15.018Z,22.30
2018-06-25T16:22:43.199Z,22.30
2018-06-25T16:25:11.355Z,22.30
2018-06-25T16:27:39.526Z,22.40
2018-06-25T16:30:07.750Z,22.30
2018-06-25T16:32:35.965Z,22.30
2018-06-25T16:35:04.126Z,22.30
2018-06-25T16:37:32.470Z,22.30
2018-06-25T16:40:00.634Z,22.30
2018-06-25T16:42:28.809Z,22.20
2018-06-25T16:44:56.958Z,22.20
2018-06-25T16:47:25.175Z,22.20
2018-06-25T16:49:53.314Z,22.20
2018-06-25T16:52:21.580Z,22.20
2018-06-25T16:54:49.755Z,22.20
2018-06-25T16:57:17.970Z,22.20
2018-06-25T16:59:46.297Z,22.20
2018-06-25T17:02:14.421Z,22.20
2018-06-25T17:04:42.598Z,22.30
2018-06-25T17:07:10.826Z,22.20
2018-06-25T17:09:39.006Z,22.20
2018-06-25T17:12:07.191Z,22.20
2018-06-25T17:14:35.365Z,22.20
2018-06-25T17:17:03.526Z,22.20
2018-06-25T17:19:31.694Z,22.20
2018-06-25T17:21:59.924Z,22.20
2018-06-25T17:24:28.046Z,22.20
2018-06-25T17:26:56.336Z,22.10
2018-06-25T17:29:24.488Z,22.10
2018-06-25T17:31:52.649Z,22.10
2018-06-25T17:34:20.842Z,22.20
2018-06-25T17:36:49.010Z,22.10
2018-06-25T17:39:17.255Z,22.10
2018-06-25T17:41:45.408Z,22.10
2018-06-25T17:44:13.585Z,22.10
2018-06-25T17:46:41.757Z,22.10
2018-06-25T17:49:09.919Z,22.10
2018-06-25T17:51:38.118Z,22.10
2018-06-25T17:54:06.389Z,22.00
2018-06-25T17:56:34.546Z,22.00
2018-06-25T17:59:02.722Z,22.00
2018-06-25T18:01:30.891Z,22.00
2018-06-25T18:03:59.057Z,22.00
2018-06-25T18:06:27.246Z,22.00
2018-06-25T18:08:55.422Z,22.00
2018-06-25T18:11:23.748Z,22.00
2018-06-25T18:13:51.971Z,21.90
2018-06-25T18:18:48.107Z,21.90
2018-06-25T18:21:16.355Z,21.90
2018-06-25T18:23:44.513Z,21.90
2018-06-25T18:26:12.700Z,21.90
2018-06-25T18:28:40.904Z,21.90
2018-06-25T18:31:09.083Z,21.90
2018-06-25T18:33:37.315Z,21.80
2018-06-25T18:36:05.495Z,21.80
2018-06-25T18:38:33.666Z,21.80
2018-06-25T18:41:01.845Z,21.80
2018-06-25T18:43:30.054Z,21.80
2018-06-25T18:45:58.233Z,21.70
2018-06-25T18:48:26.437Z,21.70
2018-06-25T18:50:54.634Z,21.70
2018-06-25T18:53:22.811Z,21.70
2018-06-25T18:55:50.992Z,21.70
2018-06-25T18:58:19.170Z,21.70
2018-06-25T19:00:47.356Z,21.70
2018-06-25T19:03:15.502Z,21.60
2018-06-25T19:05:43.704Z,21.60
2018-06-25T19:08:11.850Z,21.60
2018-06-25T19:10:40.130Z,21.50
2018-06-25T19:13:08.320Z,21.50
2018-06-25T19:15:36.481Z,21.50
2018-06-25T19:18:04.898Z,21.50
2018-06-25T19:20:33.310Z,21.40
2018-06-25T19:23:02.018Z,21.40
2018-06-25T19:25:30.174Z,21.40
2018-06-25T19:27:58.370Z,21.40
2018-06-25T19:30:26.537Z,21.40
2018-06-25T19:32:54.712Z,21.40
2018-06-25T19:35:22.878Z,21.30
2018-06-25T19:37:51.125Z,21.30
2018-06-25T19:40:19.324Z,21.30
2018-06-25T19:42:47.454Z,21.30
2018-06-25T19:45:15.632Z,21.20
2018-06-25T19:47:43.820Z,21.20
2018-06-25T19:50:11.973Z,21.10
2018-06-25T19:52:40.251Z,21.10
2018-06-25T19:55:08.424Z,21.10
2018-06-25T19:57:36.610Z,21.10
2018-06-25T20:00:04.938Z,21.00
2018-06-25T20:02:33.100Z,21.00
2018-06-25T20:05:01.261Z,20.90
2018-06-25T20:07:29.425Z,20.90
2018-06-25T20:09:57.589Z,20.80
2018-06-25T20:12:26.143Z,20.80
2018-06-25T20:14:54.302Z,20.70
2018-06-25T20:17:22.486Z,20.70
2018-06-25T20:19:50.678Z,20.60
2018-06-25T20:22:18.908Z,20.60
2018-06-25T20:24:46.975Z,20.60
2018-06-25T20:27:15.209Z,20.50
2018-06-25T20:29:43.394Z,20.50
2018-06-25T20:32:11.600Z,20.50
2018-06-25T20:34:39.782Z,20.40
2018-06-25T20:37:07.958Z,20.40
2018-06-25T20:39:36.135Z,20.30
2018-06-25T20:42:04.289Z,20.30
2018-06-25T20:44:32.470Z,20.20
2018-06-25T20:47:00.691Z,20.20
2018-06-25T20:49:28.818Z,20.20
2018-06-25T20:51:57.006Z,20.10
2018-06-25T20:54:25.177Z,20.10
2018-06-25T20:56:53.399Z,20.00
2018-06-25T20:59:21.577Z,20.00
2018-06-25T21:01:49.782Z,19.90
2018-06-25T21:04:17.967Z,19.90
2018-06-25T21:06:46.141Z,19.90
2018-06-25T21:09:14.333Z,19.80
2018-06-25T21:11:42.909Z,19.80
2018-06-25T21:14:11.098Z,19.70
2018-06-25T21:16:39.314Z,19.70
2018-06-25T21:19:07.501Z,19.70
2018-06-25T21:21:35.689Z,19.60
2018-06-25T21:24:03.923Z,19.60
2018-06-25T21:26:32.094Z,19.50
2018-06-25T21:29:00.294Z,19.50
2018-06-25T21:31:28.477Z,19.40
2018-06-25T21:33:56.654Z,19.40
2018-06-25T21:36:24.834Z,19.30
2018-06-25T21:38:53.001Z,19.30
2018-06-25T21:41:21.208Z,19.20
2018-06-25T21:43:49.380Z,19.20
2018-06-25T21:46:17.586Z,19.10
2018-06-25T21:48:45.763Z,19.10
2018-06-25T21:51:13.981Z,19.00
2018-06-25T21:53:42.158Z,19.00
2018-06-25T21:56:10.342Z,18.90
2018-06-25T21:58:38.526Z,18.80
2018-06-25T22:01:06.753Z,18.80
2018-06-25T22:03:34.980Z,18.70
2018-06-25T22:06:03.179Z,18.70
2018-06-25T22:08:31.354Z,18.60
2018-06-25T22:10:59.537Z,18.60
2018-06-25T22:13:27.714Z,18.50
2018-06-25T22:15:55.889Z,18.40
2018-06-25T22:18:24.038Z,18.40
2018-06-25T22:20:52.251Z,18.30
2018-06-25T22:23:20.413Z,18.30
2018-06-25T22:25:48.586Z,18.20
2018-06-25T22:28:16.742Z,18.20
2018-06-25T22:30:44.919Z,18.20
2018-06-25T22:33:13.077Z,18.10
2018-06-25T22:35:41.394Z,18.10
2018-06-25T22:38:09.554Z,18.10
2018-06-25T22:40:37.726Z,18.00
2018-06-25T22:43:05.903Z,18.00
2018-06-25T22:45:34.060Z,18.00
2018-06-25T22:48:02.249Z,17.90
2018-06-25T22:50:30.421Z,17.90
2018-06-25T22:52:58.629Z,17.90
2018-06-25T22:55:34.389Z,17.80
2018-06-25T22:58:02.646Z,17.80
2018-06-25T23:00:31.350Z,17.80
2018-06-25T23:02:59.542Z,17.70
2018-06-25T23:05:27.787Z,17.70
2018-06-25T23:07:55.974Z,17.60
2018-06-25T23:10:24.169Z,17.60
2018-06-25T23:12:52.353Z,17.60
2018-06-25T23:15:20.518Z,17.60
2018-06-25T23:17:48.715Z,17.50
2018-06-25T23:20:16.898Z,17.50
2018-06-25T23:22:45.081Z,17.50
2018-06-25T23:25:13.272Z,17.50
2018-06-25T23:27:41.578Z,17.50
2018-06-25T23:30:09.758Z,17.40
2018-06-25T23:35:05.890Z,17.40
2018-06-25T23:37:34.070Z,17.30
2018-06-25T23:40:02.246Z,17.30
2018-06-25T23:42:30.423Z,17.30
2018-06-25T23:44:58.590Z,17.30
2018-06-25T23:47:26.761Z,17.20
2018-06-25T23:49:54.926Z,17.20
2018-06-25T23:52:23.127Z,17.20
2018-06-25T23:54:51.294Z,17.20
2018-06-25T23:57:19.493Z,17.20
2018-06-25T23:59:47.645Z,17.10
